Time;durP1;ratioP1;P1;durP2;ratioP2;P2;SDS_P1;SDS_P2;PMS_P1;PMS_P2;Temp;Humidity;BMP_temperature;BMP_pressure;BME280_temperature;BME280_humidity;BME280_pressure;Samples;Min_cycle;Max_cycle;Signal;HPM_P1;HPM_P2
2023/01/17 00:01:07;;;;;;;;;;;28.50;97.00;;;;;;5028888;28;20322;-70
2023/01/17 00:09:51;;;;;;;;;;;28.30;97.60;;;;;;5028710;28;19962;-72
2023/01/17 00:11:58;;;;;;;;;;;29.50;96.70;;;;;;5029193;28;19966;-71
2023/01/17 00:14:26;;;;;;;;;;;30.20;95.90;;;;;;5030357;28;19921;-70
2023/01/17 00:16:53;;;;;;;;;;;30.50;95.40;;;;;;5028527;28;20320;-71
2023/01/17 01:34:16;;;;;;;;;;;31.60;92.90;;;;;;5027522;28;20056;-71
2023/01/17 01:36:46;;;;;;;;;;;32.30;92.70;;;;;;5027852;28;20350;-71
2023/01/17 01:39:12;;;;;;;;;;;32.80;92.70;;;;;;5027117;28;19912;-71
2023/01/17 01:41:39;;;;;;;;;;;33.20;91.40;;;;;;5028750;28;19952;-70
2023/01/17 01:44:26;;;;;;;;;;;33.80;92.80;;;;;;5029993;28;19908;-70
2023/01/17 01:46:52;;;;;;;;;;;34.20;91.80;;;;;;5027395;28;19921;-70
2023/01/17 01:49:23;;;;;;;;;;;34.40;90.30;;;;;;5035384;28;19975;-71
2023/01/17 01:51:53;;;;;;;;;;;34.20;89.90;;;;;;5031016;28;19921;-71
2023/01/17 01:54:23;;;;;;;;;;;34.00;90.30;;;;;;5032858;28;20015;-71
2023/01/17 01:56:51;;;;;;;;;;;34.10;91.00;;;;;;5030480;28;20112;-69
2023/01/17 01:59:19;;;;;;;;;;;33.50;90.60;;;;;;5028431;28;19917;-72
2023/01/17 02:01:46;;;;;;;;;;;33.10;90.30;;;;;;5030332;28;19913;-69
2023/01/17 02:04:14;;;;;;;;;;;33.50;91.60;;;;;;5031826;28;19999;-71
2023/01/17 02:07:06;;;;;;;;;;;34.20;91.00;;;;;;5027787;28;19940;-71
2023/01/17 02:09:32;;;;;;;;;;;34.30;90.90;;;;;;5021394;28;20007;-70
2023/01/17 02:11:59;;;;;;;;;;;34.00;90.00;;;;;;5025911;28;20466;-71
2023/01/17 02:14:26;;;;;;;;;;;33.50;90.90;;;;;;5031566;28;19912;-70
2023/01/17 02:17:03;;;;;;;;;;;32.80;90.30;;;;;;5037517;28;19937;-70
2023/01/17 02:19:42;;;;;;;;;;;32.20;91.20;;;;;;5026745;28;19928;-70
2023/01/17 02:22:27;;;;;;;;;;;31.60;91.80;;;;;;5029453;28;19988;-70
2023/01/17 02:25:12;;;;;;;;;;;31.40;92.00;;;;;;5027599;28;20288;-69
2023/01/17 02:27:47;;;;;;;;;;;31.20;92.20;;;;;;5025231;28;20882;-71
2023/01/17 02:30:17;;;;;;;;;;;31.00;92.50;;;;;;5025544;28;19917;-72
2023/01/17 02:32:44;;;;;;;;;;;30.90;92.70;;;;;;5025619;28;19931;-70
2023/01/17 02:35:30;;;;;;;;;;;30.60;93.10;;;;;;5025776;28;20122;-71
2023/01/17 02:38:14;;;;;;;;;;;30.50;93.30;;;;;;5025036;28;20379;-72
2023/01/17 02:40:44;;;;;;;;;;;30.40;93.60;;;;;;5024472;28;19998;-73
2023/01/17 02:43:13;;;;;;;;;;;30.30;93.40;;;;;;5029576;28;19935;-71
2023/01/17 02:45:39;;;;;;;;;;;30.20;93.30;;;;;;5027831;28;19939;-70
2023/01/17 02:48:07;;;;;;;;;;;30.30;93.70;;;;;;5030524;28;19917;-71
2023/01/17 02:50:44;;;;;;;;;;;30.30;93.70;;;;;;5027278;28;20019;-70
2023/01/17 02:53:26;;;;;;;;;;;30.50;93.50;;;;;;5028468;28;20392;-69
2023/01/17 02:56:11;;;;;;;;;;;30.70;93.40;;;;;;5029108;28;19908;-70
2023/01/17 02:58:52;;;;;;;;;;;31.30;93.40;;;;;;5030280;28;19916;-71
2023/01/17 03:01:28;;;;;;;;;;;32.30;93.40;;;;;;5026688;28;19916;-71
2023/01/17 03:04:02;;;;;;;;;;;33.10;92.30;;;;;;5037590;28;22768;-71
2023/01/17 03:06:35;;;;;;;;;;;33.80;91.80;;;;;;5037507;28;19927;-71
2023/01/17 03:09:02;;;;;;;;;;;34.30;92.70;;;;;;5026746;28;19975;-70
2023/01/17 03:11:29;;;;;;;;;;;34.20;91.00;;;;;;5028169;28;20651;-70
2023/01/17 03:13:56;;;;;;;;;;;33.70;91.20;;;;;;5026044;28;20675;-70
2023/01/17 03:16:24;;;;;;;;;;;33.00;91.30;;;;;;5029981;28;19912;-71
2023/01/17 03:18:52;;;;;;;;;;;32.50;91.60;;;;;;5032715;28;19913;-70
2023/01/17 03:21:19;;;;;;;;;;;32.00;92.10;;;;;;5029182;28;19916;-72
2023/01/17 03:23:46;;;;;;;;;;;32.40;92.10;;;;;;5029795;28;19920;-72
2023/01/17 03:26:15;;;;;;;;;;;32.40;91.50;;;;;;5028277;28;19942;-72
2023/01/17 03:28:42;;;;;;;;;;;32.00;91.90;;;;;;5028763;28;19912;-71
2023/01/17 03:31:09;;;;;;;;;;;31.60;91.90;;;;;;5031356;28;19912;-72
2023/01/17 03:33:35;;;;;;;;;;;31.40;92.20;;;;;;5029699;28;19974;-71
2023/01/17 03:36:03;;;;;;;;;;;31.20;92.40;;;;;;5031793;28;19915;-74
2023/01/17 03:38:30;;;;;;;;;;;31.20;92.70;;;;;;5040739;28;19990;-70
2023/01/17 03:40:56;;;;;;;;;;;31.70;93.20;;;;;;5032597;28;19920;-69
2023/01/17 03:43:23;;;;;;;;;;;31.80;91.90;;;;;;5031807;28;19913;-69
2023/01/17 03:45:53;;;;;;;;;;;31.40;92.20;;;;;;5041218;28;19985;-70
2023/01/17 03:48:20;;;;;;;;;;;31.10;92.10;;;;;;5032413;28;20848;-70
2023/01/17 03:50:50;;;;;;;;;;;30.90;92.40;;;;;;5031373;28;19955;-70
2023/01/17 03:53:16;;;;;;;;;;;30.90;92.50;;;;;;5027230;28;19966;-67
2023/01/17 03:55:49;;;;;;;;;;;30.70;92.40;;;;;;5027635;28;19913;-71
2023/01/17 03:58:16;;;;;;;;;;;30.50;92.80;;;;;;5027123;28;20005;-70
2023/01/17 04:00:43;;;;;;;;;;;30.40;93.00;;;;;;5028017;28;19916;-71
2023/01/17 04:03:10;;;;;;;;;;;30.50;93.10;;;;;;5026896;28;19962;-68
2023/01/17 04:05:36;;;;;;;;;;;30.90;92.50;;;;;;5024520;28;19916;-69
2023/01/17 04:08:05;;;;;;;;;;;31.30;92.00;;;;;;5028777;28;19924;-69
2023/01/17 04:10:32;;;;;;;;;;;31.20;92.30;;;;;;5026984;28;19913;-68
2023/01/17 04:12:58;;;;;;;;;;;31.10;92.30;;;;;;5037639;28;19978;-70
2023/01/17 04:15:25;;;;;;;;;;;31.70;92.30;;;;;;5028193;28;19917;-68
2023/01/17 04:17:52;;;;;;;;;;;32.40;92.10;;;;;;5026250;28;20003;-71
2023/01/17 04:20:31;;;;;;;;;;;32.50;91.40;;;;;;5029548;28;19916;-68
2023/01/17 04:22:57;;;;;;;;;;;32.30;91.50;;;;;;5031755;28;20358;-71
2023/01/17 04:25:24;;;;;;;;;;;31.90;91.50;;;;;;5029973;28;19971;-70
2023/01/17 04:27:51;;;;;;;;;;;31.50;91.80;;;;;;5029703;28;19912;-70
2023/01/17 04:30:18;;;;;;;;;;;31.00;91.80;;;;;;5028422;28;19912;-71
2023/01/17 04:32:45;;;;;;;;;;;30.50;92.30;;;;;;5027342;28;22750;-70
2023/01/17 04:35:12;;;;;;;;;;;30.20;92.70;;;;;;5026327;28;19920;-70
2023/01/17 04:37:38;;;;;;;;;;;30.10;92.90;;;;;;5027187;28;19924;-70
2023/01/17 04:40:06;;;;;;;;;;;30.00;93.00;;;;;;5025522;28;19916;-71
2023/01/17 04:42:32;;;;;;;;;;;30.00;92.80;;;;;;5025439;28;19956;-71
2023/01/17 04:44:59;;;;;;;;;;;30.00;93.00;;;;;;5025734;28;19962;-71
2023/01/17 04:47:25;;;;;;;;;;;30.40;92.80;;;;;;5025126;28;19928;-72
2023/01/17 04:49:52;;;;;;;;;;;30.80;92.70;;;;;;5030441;28;20019;-70
2023/01/17 04:52:19;;;;;;;;;;;31.30;92.10;;;;;;5030245;28;19916;-70
2023/01/17 04:54:49;;;;;;;;;;;31.60;92.00;;;;;;5045193;28;19912;-69
2023/01/17 04:57:17;;;;;;;;;;;31.80;91.60;;;;;;5030269;28;19919;-70
2023/01/17 04:59:44;;;;;;;;;;;31.60;91.60;;;;;;5029846;28;19917;-69
2023/01/17 05:02:11;;;;;;;;;;;31.40;91.70;;;;;;5030799;28;19912;-70
2023/01/17 05:04:38;;;;;;;;;;;31.30;92.00;;;;;;5028233;28;20473;-70
2023/01/17 05:07:05;;;;;;;;;;;30.90;91.90;;;;;;5039887;28;19920;-70
2023/01/17 05:09:32;;;;;;;;;;;30.60;92.00;;;;;;5026560;28;19917;-70
2023/01/17 05:11:58;;;;;;;;;;;30.40;92.20;;;;;;5032093;28;19917;-70
2023/01/17 05:14:25;;;;;;;;;;;30.40;92.40;;;;;;5035359;28;20282;-70
2023/01/17 05:16:56;;;;;;;;;;;30.40;92.10;;;;;;5041444;28;19921;-69
2023/01/17 05:19:23;;;;;;;;;;;30.60;92.20;;;;;;5024861;28;20353;-70
2023/01/17 05:21:50;;;;;;;;;;;30.90;92.00;;;;;;5030033;28;20405;-69
2023/01/17 05:24:17;;;;;;;;;;;31.20;91.80;;;;;;5024789;28;20562;-70
2023/01/17 05:26:45;;;;;;;;;;;31.10;91.90;;;;;;5017627;28;19932;-69
2023/01/17 05:29:11;;;;;;;;;;;31.00;91.90;;;;;;5020840;28;19912;-69
2023/01/17 05:31:38;;;;;;;;;;;31.10;91.70;;;;;;5026249;28;19925;-70
2023/01/17 05:34:04;;;;;;;;;;;31.40;91.90;;;;;;5024786;28;19952;-69
2023/01/17 05:36:32;;;;;;;;;;;31.70;91.80;;;;;;5022855;28;20738;-69
2023/01/17 05:38:58;;;;;;;;;;;31.90;91.10;;;;;;5019739;28;19921;-71
2023/01/17 05:41:28;;;;;;;;;;;31.80;91.20;;;;;;5026676;28;19913;-70
2023/01/17 05:43:55;;;;;;;;;;;31.70;91.40;;;;;;5041609;28;20294;-69
2023/01/17 05:46:22;;;;;;;;;;;31.20;91.40;;;;;;5023301;28;20054;-69
2023/01/17 05:48:49;;;;;;;;;;;31.00;91.90;;;;;;5022858;28;19924;-71
2023/01/17 05:51:15;;;;;;;;;;;30.80;91.70;;;;;;5024648;28;19966;-72
2023/01/17 05:53:42;;;;;;;;;;;30.90;91.80;;;;;;5026345;28;19917;-70
2023/01/17 05:56:09;;;;;;;;;;;31.00;91.60;;;;;;5027571;28;20459;-71
2023/01/17 05:58:39;;;;;;;;;;;30.90;92.00;;;;;;5023910;28;19912;-71
2023/01/17 06:01:06;;;;;;;;;;;30.70;91.70;;;;;;5025420;28;19963;-71
2023/01/17 06:03:32;;;;;;;;;;;30.50;92.10;;;;;;5026746;28;20009;-69
2023/01/17 06:05:59;;;;;;;;;;;30.70;92.30;;;;;;5026635;28;19927;-71
2023/01/17 06:08:26;;;;;;;;;;;30.60;91.80;;;;;;5022101;28;20034;-71
2023/01/17 06:10:52;;;;;;;;;;;30.40;91.90;;;;;;5021812;28;20054;-71
2023/01/17 06:13:22;;;;;;;;;;;30.40;92.10;;;;;;5021350;28;21264;-70
2023/01/17 06:15:49;;;;;;;;;;;30.50;92.10;;;;;;5029000;28;20366;-71
2023/01/17 06:18:16;;;;;;;;;;;30.50;92.10;;;;;;5022598;28;19925;-71
2023/01/17 06:20:43;;;;;;;;;;;30.50;91.90;;;;;;5027999;28;19916;-70
2023/01/17 06:23:11;;;;;;;;;;;30.50;91.90;;;;;;5028504;28;19921;-71
2023/01/17 06:25:37;;;;;;;;;;;30.60;92.00;;;;;;5023841;28;20011;-71
2023/01/17 06:28:07;;;;;;;;;;;30.60;92.00;;;;;;5026867;28;19928;-71
2023/01/17 06:30:34;;;;;;;;;;;30.50;91.90;;;;;;5020306;28;19917;-70
2023/01/17 06:33:01;;;;;;;;;;;30.30;92.00;;;;;;5024117;28;19921;-70
2023/01/17 06:35:28;;;;;;;;;;;30.40;92.30;;;;;;5021298;28;19912;-70
2023/01/17 06:37:57;;;;;;;;;;;30.50;91.80;;;;;;5021221;28;19982;-70
2023/01/17 06:40:24;;;;;;;;;;;30.40;91.70;;;;;;5027815;28;19965;-71
2023/01/17 06:42:50;;;;;;;;;;;30.20;91.80;;;;;;5027659;28;19975;-70
2023/01/17 06:45:17;;;;;;;;;;;30.20;91.90;;;;;;5022366;28;20481;-70
2023/01/17 06:47:44;;;;;;;;;;;30.10;91.80;;;;;;5023581;28;19977;-70
2023/01/17 06:50:12;;;;;;;;;;;29.90;92.10;;;;;;5023470;28;19913;-71
2023/01/17 06:52:42;;;;;;;;;;;29.80;92.10;;;;;;5026385;28;19917;-70
2023/01/17 06:55:09;;;;;;;;;;;29.70;92.30;;;;;;5030074;28;19952;-69
2023/01/17 06:57:36;;;;;;;;;;;29.70;92.40;;;;;;5030465;28;20011;-70
2023/01/17 07:00:04;;;;;;;;;;;29.80;92.30;;;;;;5025364;28;20562;-70
2023/01/17 07:02:30;;;;;;;;;;;29.80;92.20;;;;;;5026530;28;19913;-71
2023/01/17 07:04:57;;;;;;;;;;;29.70;92.40;;;;;;5023809;28;20000;-72
2023/01/17 07:07:24;;;;;;;;;;;29.50;92.40;;;;;;5025895;28;19916;-71
2023/01/17 07:09:51;;;;;;;;;;;29.20;92.80;;;;;;5023186;28;19912;-70
2023/01/17 07:12:18;;;;;;;;;;;29.10;92.80;;;;;;5028420;28;19916;-71
2023/01/17 07:14:44;;;;;;;;;;;29.10;92.90;;;;;;5026302;28;20342;-69
2023/01/17 07:17:11;;;;;;;;;;;29.00;93.10;;;;;;5028760;28;20627;-73
2023/01/17 07:19:38;;;;;;;;;;;29.00;93.10;;;;;;5031447;28;20479;-71
2023/01/17 07:22:09;;;;;;;;;;;29.00;92.90;;;;;;5028920;28;19922;-71
2023/01/17 07:24:36;;;;;;;;;;;29.00;92.90;;;;;;5028418;28;19916;-69
2023/01/17 07:27:03;;;;;;;;;;;29.00;92.80;;;;;;5033557;28;20287;-71
2023/01/17 07:29:30;;;;;;;;;;;29.00;92.70;;;;;;5034074;28;19913;-69
2023/01/17 07:31:56;;;;;;;;;;;29.00;92.90;;;;;;5032528;28;19928;-70
2023/01/17 07:34:24;;;;;;;;;;;29.00;92.90;;;;;;5031268;28;19948;-71
2023/01/17 07:36:53;;;;;;;;;;;28.90;93.10;;;;;;5033839;28;19986;-69
2023/01/17 07:39:20;;;;;;;;;;;28.70;93.40;;;;;;5028902;28;20422;-70
2023/01/17 07:41:47;;;;;;;;;;;28.60;93.50;;;;;;5024360;28;19924;-70
2023/01/17 07:44:13;;;;;;;;;;;28.40;93.70;;;;;;5029850;28;20425;-70
2023/01/17 07:46:40;;;;;;;;;;;28.30;93.80;;;;;;5029589;28;20586;-70
2023/01/17 07:49:07;;;;;;;;;;;28.40;93.70;;;;;;5028287;28;20367;-70
2023/01/17 07:51:33;;;;;;;;;;;28.30;94.00;;;;;;5029575;28;20386;-72
2023/01/17 07:54:03;;;;;;;;;;;28.30;94.50;;;;;;5024218;28;19934;-72
2023/01/17 07:56:30;;;;;;;;;;;28.30;94.30;;;;;;5026698;28;19921;-70
2023/01/17 07:58:56;;;;;;;;;;;28.20;94.10;;;;;;5025554;28;19919;-71
2023/01/17 08:01:26;;;;;;;;;;;28.10;94.00;;;;;;5025981;28;20803;-69
2023/01/17 08:03:56;;;;;;;;;;;27.90;94.00;;;;;;5023659;28;20268;-70
2023/01/17 08:06:26;;;;;;;;;;;27.80;94.40;;;;;;5023469;28;19925;-70
2023/01/17 08:08:58;;;;;;;;;;;27.70;94.20;;;;;;5023609;28;19913;-71
2023/01/17 08:11:25;;;;;;;;;;;27.40;94.50;;;;;;5030049;28;20378;-71
2023/01/17 08:13:58;;;;;;;;;;;27.30;94.60;;;;;;5026623;28;20420;-70
2023/01/17 08:16:25;;;;;;;;;;;27.00;94.10;;;;;;5028736;28;20331;-71
2023/01/17 08:18:52;;;;;;;;;;;26.90;94.30;;;;;;5027373;28;19913;-71
2023/01/17 08:21:28;;;;;;;;;;;26.90;94.60;;;;;;5025639;28;19924;-71
2023/01/17 08:23:55;;;;;;;;;;;26.80;94.40;;;;;;5028631;28;19923;-71
2023/01/17 08:26:25;;;;;;;;;;;26.70;94.40;;;;;;5031498;28;22472;-70
2023/01/17 08:28:56;;;;;;;;;;;26.60;94.40;;;;;;5030130;28;19916;-69
2023/01/17 08:31:23;;;;;;;;;;;26.40;94.60;;;;;;5030961;28;20220;-69
2023/01/17 08:33:50;;;;;;;;;;;26.30;94.90;;;;;;5030030;28;19920;-70
2023/01/17 08:36:16;;;;;;;;;;;26.30;95.10;;;;;;5029278;28;20379;-70
2023/01/17 08:38:43;;;;;;;;;;;26.20;95.30;;;;;;5029690;28;20636;-70
2023/01/17 08:41:10;;;;;;;;;;;26.20;95.50;;;;;;5030922;28;19936;-70
2023/01/17 08:43:37;;;;;;;;;;;26.10;95.50;;;;;;5032905;28;20363;-70
2023/01/17 08:46:05;;;;;;;;;;;26.10;95.60;;;;;;5032579;28;19920;-70
2023/01/17 08:48:31;;;;;;;;;;;26.00;95.70;;;;;;5029130;28;19908;-70
2023/01/17 08:51:01;;;;;;;;;;;26.00;95.70;;;;;;5032152;28;19992;-69
2023/01/17 08:53:28;;;;;;;;;;;26.00;95.90;;;;;;5029135;28;19916;-70
2023/01/17 08:55:58;;;;;;;;;;;25.90;95.90;;;;;;5026491;28;20007;-70
2023/01/17 08:58:29;;;;;;;;;;;25.80;96.20;;;;;;5025603;28;21160;-70
2023/01/17 09:01:05;;;;;;;;;;;25.70;96.50;;;;;;5032008;28;19934;-70
2023/01/17 09:03:32;;;;;;;;;;;25.60;96.70;;;;;;5031061;28;19924;-70
2023/01/17 09:06:03;;;;;;;;;;;25.60;96.80;;;;;;5030255;28;20023;-70
2023/01/17 09:08:30;;;;;;;;;;;25.50;96.80;;;;;;5028796;28;20387;-69
2023/01/17 09:10:57;;;;;;;;;;;25.40;96.80;;;;;;5030533;28;19934;-70
2023/01/17 09:13:23;;;;;;;;;;;25.30;97.00;;;;;;5030727;28;19992;-70
2023/01/17 09:15:50;;;;;;;;;;;25.20;97.30;;;;;;5026363;28;20363;-70
2023/01/17 09:18:17;;;;;;;;;;;25.20;97.40;;;;;;5026775;28;19970;-70
2023/01/17 09:20:44;;;;;;;;;;;25.10;97.50;;;;;;5027325;28;20816;-69
2023/01/17 09:23:10;;;;;;;;;;;25.00;97.70;;;;;;5028947;28;19917;-69
2023/01/17 09:25:38;;;;;;;;;;;25.00;97.70;;;;;;5026102;28;21415;-71
2023/01/17 09:28:05;;;;;;;;;;;24.90;97.80;;;;;;5028659;28;20368;-71
2023/01/17 09:30:32;;;;;;;;;;;24.70;98.00;;;;;;5027575;28;19951;-68
2023/01/17 09:32:58;;;;;;;;;;;24.70;98.10;;;;;;5028016;28;19935;-70
2023/01/17 09:35:25;;;;;;;;;;;24.70;98.20;;;;;;5026735;28;20276;-70
2023/01/17 09:37:51;;;;;;;;;;;24.70;98.30;;;;;;5027018;28;20416;-70
2023/01/17 09:40:20;;;;;;;;;;;24.60;98.60;;;;;;5027038;28;19912;-69
2023/01/17 09:42:48;;;;;;;;;;;24.60;98.80;;;;;;5028120;28;19908;-70
2023/01/17 09:45:17;;;;;;;;;;;24.50;98.90;;;;;;5027289;28;19971;-68
2023/01/17 09:47:45;;;;;;;;;;;24.50;99.00;;;;;;5029366;28;19960;-69
2023/01/17 09:50:24;;;;;;;;;;;24.50;99.10;;;;;;5028107;28;19913;-69
2023/01/17 09:53:00;;;;;;;;;;;24.40;99.30;;;;;;5029713;28;20514;-71
2023/01/17 09:55:29;;;;;;;;;;;24.30;99.60;;;;;;5028705;28;19927;-70
2023/01/17 09:58:01;;;;;;;;;;;24.30;99.80;;;;;;5028001;28;19927;-70
2023/01/17 10:00:31;;;;;;;;;;;24.30;99.90;;;;;;5028240;28;19913;-70
2023/01/17 10:03:16;;;;;;;;;;;24.20;99.90;;;;;;5028257;28;20351;-70
2023/01/17 10:06:00;;;;;;;;;;;24.20;99.90;;;;;;5029784;28;20002;-70
2023/01/17 10:09:06;;;;;;;;;;;24.20;99.90;;;;;;5028481;28;20295;-70
2023/01/17 10:11:36;;;;;;;;;;;24.20;99.90;;;;;;4982693;28;20388;-71
2023/01/17 10:14:06;;;;;;;;;;;24.20;99.90;;;;;;4979885;28;20372;-70
2023/01/17 10:16:39;;;;;;;;;;;24.20;99.90;;;;;;5008126;28;20264;-70
2023/01/17 10:19:24;;;;;;;;;;;24.20;99.90;;;;;;5025419;28;20367;-70
2023/01/17 10:22:01;;;;;;;;;;;24.40;99.90;;;;;;5029004;28;19912;-70
2023/01/17 10:24:50;;;;;;;;;;;24.40;99.90;;;;;;5024999;28;19920;-70
2023/01/17 10:27:25;;;;;;;;;;;24.40;99.90;;;;;;5012323;28;22176;-70
2023/01/17 10:29:53;;;;;;;;;;;24.30;99.90;;;;;;5032374;28;19917;-71
2023/01/17 10:32:22;;;;;;;;;;;24.30;99.90;;;;;;5032088;28;19920;-71
2023/01/17 10:34:50;;;;;;;;;;;24.40;99.90;;;;;;5029849;28;19990;-71
2023/01/17 10:37:26;;;;;;;;;;;24.40;99.90;;;;;;5033055;28;19908;-70
2023/01/17 10:39:55;;;;;;;;;;;24.30;99.90;;;;;;5029910;28;20367;-70
2023/01/17 10:42:42;;;;;;;;;;;24.30;99.90;;;;;;5031499;28;20046;-69
2023/01/17 10:45:17;;;;;;;;;;;24.20;99.90;;;;;;5031542;28;20382;-70
2023/01/17 10:47:46;;;;;;;;;;;24.20;99.90;;;;;;5032175;28;19931;-72
2023/01/17 10:50:13;;;;;;;;;;;24.10;99.90;;;;;;5031678;28;19917;-69
2023/01/17 10:52:44;;;;;;;;;;;24.20;99.90;;;;;;5031582;28;19920;-70
2023/01/17 10:55:19;;;;;;;;;;;24.20;99.90;;;;;;5030498;28;20516;-69
2023/01/17 10:57:47;;;;;;;;;;;24.20;99.90;;;;;;5029469;28;19925;-71
2023/01/17 11:00:33;;;;;;;;;;;24.20;99.90;;;;;;5028514;28;19924;-71
2023/01/17 11:03:00;;;;;;;;;;;24.20;99.90;;;;;;5033574;28;20500;-71
2023/01/17 11:05:31;;;;;;;;;;;24.30;99.90;;;;;;5030774;28;19966;-70
2023/01/17 11:08:07;;;;;;;;;;;24.30;99.90;;;;;;5031538;28;20003;-71
2023/01/17 11:10:45;;;;;;;;;;;24.40;99.90;;;;;;5028691;28;20003;-70
2023/01/17 11:13:26;;;;;;;;;;;24.40;99.90;;;;;;5029477;28;20098;-70
2023/01/17 11:15:56;;;;;;;;;;;24.30;99.90;;;;;;5030641;28;19916;-71
2023/01/17 11:18:26;;;;;;;;;;;24.20;99.90;;;;;;5031131;28;19935;-70
2023/01/17 11:20:53;;;;;;;;;;;24.10;99.90;;;;;;5031676;28;20374;-71
2023/01/17 11:23:45;;;;;;;;;;;24.10;99.90;;;;;;5029214;28;19917;-69
2023/01/17 11:26:23;;;;;;;;;;;24.00;99.90;;;;;;5026423;28;20683;-74
2023/01/17 11:28:51;;;;;;;;;;;23.90;99.90;;;;;;5026646;28;19909;-72
2023/01/17 11:31:17;;;;;;;;;;;23.80;99.90;;;;;;5028683;28;20379;-70
2023/01/17 11:33:52;;;;;;;;;;;23.60;99.90;;;;;;5029971;28;19963;-72
2023/01/17 11:36:19;;;;;;;;;;;23.40;99.90;;;;;;5034887;28;19916;-71
2023/01/17 11:38:56;;;;;;;;;;;23.40;99.90;;;;;;5029008;28;21758;-72
2023/01/17 11:41:23;;;;;;;;;;;23.20;99.90;;;;;;5032860;28;20011;-72
2023/01/17 11:43:54;;;;;;;;;;;23.10;99.90;;;;;;5032320;28;19967;-70
2023/01/17 11:46:21;;;;;;;;;;;23.00;99.90;;;;;;5034537;28;20245;-70
2023/01/17 11:48:51;;;;;;;;;;;23.00;99.90;;;;;;5028712;28;19917;-70
2023/01/17 11:51:27;;;;;;;;;;;22.90;99.90;;;;;;5030720;28;19913;-72
2023/01/17 11:53:55;;;;;;;;;;;22.80;99.90;;;;;;5030200;28;20359;-72
2023/01/17 11:56:28;;;;;;;;;;;22.70;99.90;;;;;;5031238;28;19913;-70
2023/01/17 11:59:26;;;;;;;;;;;22.70;99.90;;;;;;5028348;28;20266;-70
2023/01/17 12:02:11;;;;;;;;;;;22.70;99.90;;;;;;4999906;28;19965;-71
2023/01/17 12:04:42;;;;;;;;;;;22.60;99.90;;;;;;5028262;28;19917;-73
2023/01/17 12:07:44;;;;;;;;;;;22.50;99.90;;;;;;5033576;28;20015;-72
2023/01/17 12:10:13;;;;;;;;;;;22.50;99.90;;;;;;4972033;28;20038;-72
2023/01/17 12:15:37;;;;;;;;;;;22.40;99.90;;;;;;5031754;28;19935;-71
2023/01/17 12:18:13;;;;;;;;;;;22.30;99.90;;;;;;5028186;28;19970;-72
2023/01/17 12:20:46;;;;;;;;;;;22.30;99.90;;;;;;5028125;28;19955;-72
2023/01/17 12:23:30;;;;;;;;;;;22.20;99.90;;;;;;5032348;28;19924;-74
2023/01/17 12:26:00;;;;;;;;;;;22.20;99.90;;;;;;5028921;28;19925;-69
2023/01/17 12:28:26;;;;;;;;;;;22.10;99.90;;;;;;5027206;28;19927;-74
2023/01/17 12:31:02;;;;;;;;;;;22.00;99.90;;;;;;5027457;28;20335;-71
2023/01/17 12:33:42;;;;;;;;;;;22.00;99.90;;;;;;5030174;28;19925;-70
2023/01/17 12:36:16;;;;;;;;;;;21.90;99.90;;;;;;5029522;28;20290;-71
2023/01/17 12:38:44;;;;;;;;;;;21.90;99.90;;;;;;5027713;28;19928;-74
2023/01/17 12:41:30;;;;;;;;;;;21.90;99.90;;;;;;5030506;28;19967;-72
2023/01/17 12:43:59;;;;;;;;;;;21.80;99.90;;;;;;5030772;28;19924;-71
2023/01/17 12:46:25;;;;;;;;;;;21.80;99.90;;;;;;5032030;28;19921;-75
2023/01/17 12:48:55;;;;;;;;;;;21.70;99.90;;;;;;5029159;28;19912;-71
2023/01/17 12:51:28;;;;;;;;;;;21.70;99.90;;;;;;5027673;28;20040;-71
2023/01/17 12:53:58;;;;;;;;;;;21.60;99.90;;;;;;5028460;28;22501;-73
2023/01/17 12:56:35;;;;;;;;;;;21.60;99.90;;;;;;5030512;28;20248;-71
2023/01/17 12:59:20;;;;;;;;;;;21.50;99.90;;;;;;5027499;28;19936;-70
2023/01/17 13:01:56;;;;;;;;;;;21.50;99.90;;;;;;5030024;28;20208;-71
2023/01/17 13:04:22;;;;;;;;;;;21.50;99.90;;;;;;5026859;28;19923;-72
2023/01/17 13:06:59;;;;;;;;;;;21.40;99.90;;;;;;5029073;28;20022;-70
2023/01/17 13:09:31;;;;;;;;;;;21.40;99.90;;;;;;5046885;28;19919;-73
2023/01/17 13:12:04;;;;;;;;;;;21.40;99.90;;;;;;5044726;28;19920;-74
2023/01/17 13:14:31;;;;;;;;;;;21.40;99.90;;;;;;5032893;28;19912;-73
2023/01/17 13:17:00;;;;;;;;;;;21.30;99.90;;;;;;5037525;28;20426;-74
2023/01/17 13:19:26;;;;;;;;;;;21.30;99.90;;;;;;5029835;28;19912;-73
2023/01/17 13:21:54;;;;;;;;;;;21.30;99.90;;;;;;5031573;28;19913;-72
2023/01/17 13:24:25;;;;;;;;;;;21.20;99.90;;;;;;5031272;28;19991;-73
2023/01/17 13:26:58;;;;;;;;;;;21.20;99.90;;;;;;5034545;28;19920;-73
2023/01/17 13:29:34;;;;;;;;;;;21.10;99.90;;;;;;5032618;28;19913;-71
2023/01/17 13:32:04;;;;;;;;;;;21.10;99.90;;;;;;5032025;28;19935;-72
2023/01/17 13:34:31;;;;;;;;;;;21.10;99.90;;;;;;5031566;28;19917;-72
2023/01/17 13:37:16;;;;;;;;;;;21.00;99.90;;;;;;5047722;28;19909;-74
2023/01/17 13:39:48;;;;;;;;;;;21.00;99.90;;;;;;5030059;28;20295;-73
2023/01/17 13:42:21;;;;;;;;;;;20.90;99.90;;;;;;5030160;28;19916;-72
2023/01/17 13:44:48;;;;;;;;;;;20.90;99.90;;;;;;5030043;28;19966;-74
2023/01/17 13:47:21;;;;;;;;;;;20.90;99.90;;;;;;5030019;28;20335;-72
2023/01/17 13:49:49;;;;;;;;;;;20.80;99.90;;;;;;5035357;28;19912;-73
2023/01/17 13:52:18;;;;;;;;;;;20.80;99.90;;;;;;5034723;28;20554;-72
2023/01/17 13:54:53;;;;;;;;;;;20.80;99.90;;;;;;5030385;28;19912;-74
2023/01/17 13:57:27;;;;;;;;;;;20.80;99.90;;;;;;5028657;28;20020;-72
2023/01/17 13:59:54;;;;;;;;;;;20.80;99.90;;;;;;5028361;28;20355;-73
2023/01/17 14:02:50;;;;;;;;;;;20.70;99.90;;;;;;5028032;28;19913;-73
2023/01/17 14:05:20;;;;;;;;;;;20.70;99.90;;;;;;5031722;28;19985;-71
2023/01/17 14:07:48;;;;;;;;;;;20.70;99.90;;;;;;5033274;28;19984;-71
2023/01/17 14:10:36;;;;;;;;;;;20.70;99.90;;;;;;5042263;28;19912;-72
2023/01/17 14:13:25;;;;;;;;;;;20.60;99.90;;;;;;5032091;28;21083;-72
2023/01/17 14:15:52;;;;;;;;;;;20.50;99.90;;;;;;5029459;28;19924;-72
2023/01/17 14:18:39;;;;;;;;;;;20.50;99.90;;;;;;5028477;28;20398;-72
2023/01/17 14:21:09;;;;;;;;;;;20.50;99.90;;;;;;5035018;28;20420;-71
2023/01/17 14:23:56;;;;;;;;;;;20.50;99.90;;;;;;5044683;28;20591;-70
2023/01/17 14:26:27;;;;;;;;;;;20.40;99.90;;;;;;5041426;28;19921;-72
2023/01/17 14:28:55;;;;;;;;;;;20.40;99.90;;;;;;5030877;28;20413;-72
2023/01/17 14:31:23;;;;;;;;;;;20.40;99.90;;;;;;5035064;28;19908;-73
2023/01/17 14:33:50;;;;;;;;;;;20.40;99.90;;;;;;5029024;28;20018;-71
2023/01/17 14:36:37;;;;;;;;;;;20.40;99.90;;;;;;5031326;28;19931;-74
2023/01/17 14:39:19;;;;;;;;;;;20.40;99.90;;;;;;5030180;28;20642;-72
2023/01/17 14:41:46;;;;;;;;;;;20.40;99.90;;;;;;5029926;28;19916;-74
2023/01/17 14:44:13;;;;;;;;;;;20.30;99.90;;;;;;5037685;28;20366;-72
2023/01/17 14:46:40;;;;;;;;;;;20.30;99.90;;;;;;5031576;28;20332;-71
2023/01/17 14:49:19;;;;;;;;;;;20.20;99.90;;;;;;5029183;28;19917;-72
2023/01/17 14:52:02;;;;;;;;;;;20.20;99.90;;;;;;5030182;28;19916;-71
2023/01/17 14:54:29;;;;;;;;;;;20.20;99.90;;;;;;5029125;28;20375;-72
2023/01/17 14:57:14;;;;;;;;;;;20.20;99.90;;;;;;5026330;28;19931;-72
2023/01/17 14:59:41;;;;;;;;;;;20.20;99.90;;;;;;5026442;28;19970;-72
2023/01/17 15:02:11;;;;;;;;;;;20.10;99.90;;;;;;5028047;28;20848;-71
2023/01/17 15:04:39;;;;;;;;;;;20.20;99.90;;;;;;5029526;28;22416;-73
2023/01/17 15:07:07;;;;;;;;;;;20.10;99.90;;;;;;5028685;28;19921;-70
2023/01/17 15:09:37;;;;;;;;;;;20.10;99.90;;;;;;5035209;28;21678;-71
2023/01/17 15:12:04;;;;;;;;;;;20.00;99.90;;;;;;5027089;28;19966;-71
2023/01/17 15:14:36;;;;;;;;;;;19.90;99.90;;;;;;5030197;28;20428;-71
2023/01/17 15:17:11;;;;;;;;;;;19.90;99.90;;;;;;5032369;28;20308;-71
2023/01/17 15:19:42;;;;;;;;;;;19.80;99.90;;;;;;5030745;28;19916;-71
2023/01/17 15:22:09;;;;;;;;;;;19.80;99.90;;;;;;5034190;28;19944;-70
2023/01/17 15:24:40;;;;;;;;;;;19.80;99.90;;;;;;5031854;28;20318;-71
2023/01/17 15:27:07;;;;;;;;;;;19.80;99.90;;;;;;5030553;28;19920;-70
2023/01/17 15:29:35;;;;;;;;;;;19.80;99.90;;;;;;5029857;28;19948;-70
2023/01/17 15:32:05;;;;;;;;;;;19.80;99.90;;;;;;5030578;28;19921;-71
2023/01/17 15:34:34;;;;;;;;;;;19.80;99.90;;;;;;5028662;28;20460;-70
2023/01/17 15:37:20;;;;;;;;;;;19.70;99.90;;;;;;5031349;28;20657;-71
2023/01/17 15:39:46;;;;;;;;;;;19.70;99.90;;;;;;5030525;28;19916;-71
2023/01/17 15:42:22;;;;;;;;;;;19.60;99.90;;;;;;5030802;28;19935;-71
2023/01/17 15:44:51;;;;;;;;;;;19.60;99.90;;;;;;5033075;28;20363;-71
2023/01/17 15:47:28;;;;;;;;;;;19.60;99.90;;;;;;5032519;28;19924;-73
2023/01/17 15:49:55;;;;;;;;;;;19.60;99.90;;;;;;5030000;28;19959;-71
2023/01/17 15:52:21;;;;;;;;;;;19.60;99.90;;;;;;5029872;28;19912;-70
2023/01/17 15:54:51;;;;;;;;;;;19.60;99.90;;;;;;5029826;28;20341;-72
2023/01/17 15:57:35;;;;;;;;;;;19.70;99.90;;;;;;5030010;28;20054;-72
2023/01/17 16:00:04;;;;;;;;;;;19.60;99.90;;;;;;5030596;28;19958;-71